Time;durP1;ratioP1;P1;durP2;ratioP2;P2;SDS_P1;SDS_P2;PMS_P1;PMS_P2;Temp;Humidity;BMP_temperature;BMP_pressure;BME280_temperature;BME280_humidity;BME280_pressure;Samples;Min_cycle;Max_cycle;Signal;HPM_P1;HPM_P2
2024/03/01 00:01:19;;;;;;;4.50;3.83;;;;;;;;;;4973218;28;20117;-80
2024/03/01 00:03:44;;;;;;;5.18;4.00;;;;;;;;;;4981322;28;20019;-80
2024/03/01 00:06:09;;;;;;;5.15;3.97;;;;;;;;;;4992727;28;20060;-81
2024/03/01 00:08:35;;;;;;;5.43;3.80;;;;;;;;;;4980197;28;20133;-81
2024/03/01 00:11:00;;;;;;;4.72;3.75;;;;;;;;;;4975191;28;20113;-81
2024/03/01 00:13:25;;;;;;;5.25;4.05;;;;;;;;;;4962568;28;20034;-79
2024/03/01 00:15:51;;;;;;;4.70;4.00;;;;;;;;;;4966376;28;20536;-82
2024/03/01 00:18:16;;;;;;;5.53;4.28;;;;;;;;;;4992942;28;20184;-80
2024/03/01 00:20:42;;;;;;;5.10;4.20;;;;;;;;;;4980743;28;20134;-80
2024/03/01 00:23:07;;;;;;;4.65;3.67;;;;;;;;;;4969600;28;20039;-79
2024/03/01 00:25:32;;;;;;;4.75;4.10;;;;;;;;;;4989860;28;20041;-79
2024/03/01 00:27:58;;;;;;;5.50;4.28;;;;;;;;;;4972244;28;20034;-79
2024/03/01 00:30:23;;;;;;;5.22;4.07;;;;;;;;;;4972996;28;20410;-79
2024/03/01 00:32:48;;;;;;;5.50;4.05;;;;;;;;;;4969934;28;20330;-79
2024/03/01 00:35:14;;;;;;;4.93;4.03;;;;;;;;;;4983118;28;20753;-79
2024/03/01 00:37:40;;;;;;;4.75;4.05;;;;;;;;;;4965308;28;20045;-80
2024/03/01 00:40:06;;;;;;;4.90;4.13;;;;;;;;;;4957920;28;20097;-80
2024/03/01 00:42:31;;;;;;;5.18;4.07;;;;;;;;;;4959994;28;20071;-80
2024/03/01 00:44:57;;;;;;;5.07;4.10;;;;;;;;;;4961962;28;20278;-80
2024/03/01 00:47:22;;;;;;;5.18;4.15;;;;;;;;;;4962310;28;23135;-80
2024/03/01 00:49:48;;;;;;;5.13;4.15;;;;;;;;;;4967515;28;20049;-81
2024/03/01 00:52:13;;;;;;;6.18;4.32;;;;;;;;;;4966168;28;20031;-80
2024/03/01 00:54:39;;;;;;;6.00;4.50;;;;;;;;;;4961011;28;20081;-80
2024/03/01 00:57:04;;;;;;;5.18;3.72;;;;;;;;;;4988990;28;20038;-80
2024/03/01 00:59:29;;;;;;;5.35;3.92;;;;;;;;;;4996172;28;20043;-80
2024/03/01 01:01:55;;;;;;;5.57;4.30;;;;;;;;;;4982249;28;20038;-81
2024/03/01 01:04:20;;;;;;;5.40;4.13;;;;;;;;;;4983594;28;20037;-80
2024/03/01 01:06:45;;;;;;;6.18;4.30;;;;;;;;;;4980740;28;20027;-80
2024/03/01 01:09:11;;;;;;;6.57;4.95;;;;;;;;;;4985938;28;20030;-80
2024/03/01 01:11:36;;;;;;;4.93;4.22;;;;;;;;;;4978569;28;20035;-80
2024/03/01 01:14:02;;;;;;;4.35;3.80;;;;;;;;;;4973035;28;20047;-81
2024/03/01 01:16:27;;;;;;;5.07;4.22;;;;;;;;;;4975056;28;20463;-79
2024/03/01 01:18:53;;;;;;;5.13;4.15;;;;;;;;;;4974566;28;20027;-80
2024/03/01 01:21:19;;;;;;;5.38;4.05;;;;;;;;;;4996718;28;20043;-80
2024/03/01 01:23:44;;;;;;;5.03;3.95;;;;;;;;;;4956965;28;20093;-79
2024/03/01 01:26:10;;;;;;;5.38;4.15;;;;;;;;;;4986598;28;20069;-80
2024/03/01 01:28:35;;;;;;;4.57;3.85;;;;;;;;;;4976752;28;20051;-79
2024/03/01 01:31:01;;;;;;;4.88;4.28;;;;;;;;;;5001962;28;20031;-79
2024/03/01 01:33:26;;;;;;;5.50;4.35;;;;;;;;;;4990002;28;20117;-79
2024/03/01 01:35:51;;;;;;;5.43;4.53;;;;;;;;;;4982496;28;20125;-80
2024/03/01 01:38:17;;;;;;;5.57;4.35;;;;;;;;;;4972725;28;20532;-80
2024/03/01 01:40:43;;;;;;;5.30;4.18;;;;;;;;;;4981186;28;20461;-80
2024/03/01 01:43:09;;;;;;;5.13;4.22;;;;;;;;;;4986716;28;20034;-79
2024/03/01 01:45:34;;;;;;;5.43;4.30;;;;;;;;;;4974170;28;20088;-80
2024/03/01 01:48:02;;;;;;;4.90;4.20;;;;;;;;;;4976514;28;20027;-79
2024/03/01 01:50:27;;;;;;;5.53;4.15;;;;;;;;;;4976365;28;20094;-80
2024/03/01 01:52:53;;;;;;;5.30;4.22;;;;;;;;;;4986574;28;20035;-80
2024/03/01 01:55:18;;;;;;;6.22;4.32;;;;;;;;;;4956867;28;20145;-80
2024/03/01 01:57:43;;;;;;;5.35;4.38;;;;;;;;;;4983159;28;20388;-79
2024/03/01 02:00:10;;;;;;;4.85;4.10;;;;;;;;;;4986693;28;20105;-79
2024/03/01 02:02:35;;;;;;;5.60;4.10;;;;;;;;;;4976001;28;20042;-80
2024/03/01 02:05:00;;;;;;;5.00;4.13;;;;;;;;;;4960560;28;20030;-80
2024/03/01 02:07:26;;;;;;;5.50;4.60;;;;;;;;;;4960992;28;20035;-79
2024/03/01 02:09:52;;;;;;;5.03;4.10;;;;;;;;;;4947377;28;20498;-80
2024/03/01 02:12:19;;;;;;;6.07;4.78;;;;;;;;;;4969385;28;20121;-79
2024/03/01 02:14:44;;;;;;;5.85;4.45;;;;;;;;;;4983288;28;20051;-78
2024/03/01 02:17:09;;;;;;;5.68;4.25;;;;;;;;;;4970061;28;20046;-79
2024/03/01 02:19:34;;;;;;;5.07;4.18;;;;;;;;;;4974219;28;20043;-79
2024/03/01 02:22:02;;;;;;;4.70;4.20;;;;;;;;;;4969865;28;20553;-79
2024/03/01 02:24:28;;;;;;;5.85;4.60;;;;;;;;;;4976588;28;20118;-79
2024/03/01 02:26:54;;;;;;;5.20;4.18;;;;;;;;;;4985460;28;20586;-80
2024/03/01 02:29:20;;;;;;;5.80;4.22;;;;;;;;;;4974523;28;20058;-79
2024/03/01 02:31:45;;;;;;;5.63;3.97;;;;;;;;;;4968517;28;20118;-79
2024/03/01 02:34:10;;;;;;;5.72;4.30;;;;;;;;;;4988311;28;20034;-79
2024/03/01 02:36:36;;;;;;;6.13;4.53;;;;;;;;;;4975079;28;20117;-80
2024/03/01 02:39:01;;;;;;;5.55;4.82;;;;;;;;;;5000118;28;20043;-80
2024/03/01 02:41:26;;;;;;;5.30;4.40;;;;;;;;;;4971860;28;20038;-80
2024/03/01 02:43:51;;;;;;;5.95;4.35;;;;;;;;;;4994236;28;20037;-79
2024/03/01 02:46:17;;;;;;;4.85;4.18;;;;;;;;;;4979553;28;20142;-79
2024/03/01 02:48:42;;;;;;;4.70;3.97;;;;;;;;;;4984260;28;20038;-79
2024/03/01 02:51:08;;;;;;;5.60;4.50;;;;;;;;;;4968056;28;20042;-80
2024/03/01 02:53:33;;;;;;;5.45;4.22;;;;;;;;;;4980371;28;20489;-80
2024/03/01 02:55:59;;;;;;;6.18;4.57;;;;;;;;;;4986823;28;20077;-81
2024/03/01 02:58:24;;;;;;;4.72;4.10;;;;;;;;;;4982529;28;20319;-81
2024/03/01 03:00:49;;;;;;;5.40;4.38;;;;;;;;;;4986046;28;20043;-80
2024/03/01 03:03:15;;;;;;;5.53;4.07;;;;;;;;;;4962275;28;20054;-80
2024/03/01 03:05:40;;;;;;;5.05;4.20;;;;;;;;;;4972260;28;20725;-79
2024/03/01 03:08:05;;;;;;;6.95;4.53;;;;;;;;;;4988187;28;20039;-80
2024/03/01 03:10:31;;;;;;;4.80;4.00;;;;;;;;;;4992755;28;20039;-80
2024/03/01 03:12:56;;;;;;;5.10;4.25;;;;;;;;;;4968437;28;20113;-81
2024/03/01 03:15:21;;;;;;;5.85;4.22;;;;;;;;;;4984973;28;20034;-80
2024/03/01 03:17:47;;;;;;;4.72;4.22;;;;;;;;;;4984105;28;20050;-80
2024/03/01 03:20:14;;;;;;;5.75;4.40;;;;;;;;;;4968358;28;20030;-80
2024/03/01 03:22:40;;;;;;;6.03;4.75;;;;;;;;;;4971225;28;20653;-81
2024/03/01 03:25:05;;;;;;;5.22;4.20;;;;;;;;;;4970951;28;20054;-81
2024/03/01 03:27:31;;;;;;;4.90;4.20;;;;;;;;;;4988382;28;20037;-80
2024/03/01 03:29:56;;;;;;;5.90;4.85;;;;;;;;;;4996022;28;20049;-80
2024/03/01 03:32:21;;;;;;;6.50;4.80;;;;;;;;;;4986269;28;20033;-80
2024/03/01 03:34:47;;;;;;;5.57;4.60;;;;;;;;;;4981055;28;20058;-81
2024/03/01 03:37:12;;;;;;;5.05;4.55;;;;;;;;;;4985649;28;20046;-81
2024/03/01 03:39:37;;;;;;;4.93;4.40;;;;;;;;;;4970608;28;20478;-81
2024/03/01 03:42:03;;;;;;;5.90;4.45;;;;;;;;;;4987376;28;20807;-81
2024/03/01 03:44:29;;;;;;;6.40;4.60;;;;;;;;;;4991870;28;20039;-80
2024/03/01 03:46:54;;;;;;;5.97;4.57;;;;;;;;;;4987081;28;20565;-80
2024/03/01 03:49:20;;;;;;;5.80;4.50;;;;;;;;;;4985686;28;20501;-81
2024/03/01 03:51:45;;;;;;;5.75;4.90;;;;;;;;;;4967828;28;20093;-80
2024/03/01 03:54:13;;;;;;;6.43;4.78;;;;;;;;;;4976574;28;20053;-81
2024/03/01 03:56:39;;;;;;;5.13;4.22;;;;;;;;;;4977177;28;20150;-80
2024/03/01 03:59:04;;;;;;;6.05;4.60;;;;;;;;;;4967012;28;20187;-79
2024/03/01 04:01:30;;;;;;;5.03;4.22;;;;;;;;;;4970031;28;20038;-80
2024/03/01 04:03:55;;;;;;;5.15;4.22;;;;;;;;;;4948909;28;20036;-80
2024/03/01 04:06:21;;;;;;;5.30;4.68;;;;;;;;;;4969131;28;20027;-80
2024/03/01 04:08:49;;;;;;;5.18;4.18;;;;;;;;;;4980960;28;20038;-79
2024/03/01 04:11:15;;;;;;;5.47;4.47;;;;;;;;;;4972060;28;20474;-79
2024/03/01 04:13:40;;;;;;;5.13;4.38;;;;;;;;;;4972398;28;20030;-79
2024/03/01 04:16:06;;;;;;;5.80;4.20;;;;;;;;;;4968692;28;20042;-80
2024/03/01 04:18:31;;;;;;;6.32;4.80;;;;;;;;;;4967452;28;20118;-79
2024/03/01 04:20:58;;;;;;;5.40;4.70;;;;;;;;;;4993068;28;20030;-79
2024/03/01 04:23:24;;;;;;;5.68;4.55;;;;;;;;;;4980768;28;20039;-79
2024/03/01 04:25:51;;;;;;;5.65;4.50;;;;;;;;;;4982643;28;20030;-80
2024/03/01 04:28:17;;;;;;;5.53;4.82;;;;;;;;;;4976311;28;20023;-79
2024/03/01 04:30:43;;;;;;;5.10;4.50;;;;;;;;;;4971909;28;20553;-79
2024/03/01 04:33:08;;;;;;;5.40;4.47;;;;;;;;;;4979190;28;20117;-80
2024/03/01 04:35:33;;;;;;;5.60;4.70;;;;;;;;;;5000392;28;20069;-79
2024/03/01 04:37:58;;;;;;;5.95;4.68;;;;;;;;;;4975523;28;20054;-79
2024/03/01 04:40:25;;;;;;;5.25;4.30;;;;;;;;;;4995257;28;20035;-79
2024/03/01 04:42:52;;;;;;;5.28;4.50;;;;;;;;;;4973214;28;20117;-80
2024/03/01 04:45:18;;;;;;;5.78;4.68;;;;;;;;;;4974612;28;20061;-80
2024/03/01 04:47:44;;;;;;;5.38;4.60;;;;;;;;;;4971240;28;20039;-80
2024/03/01 04:50:09;;;;;;;5.20;4.50;;;;;;;;;;4987010;28;20546;-80
2024/03/01 04:52:34;;;;;;;6.43;4.63;;;;;;;;;;4973092;28;20042;-79
2024/03/01 04:55:00;;;;;;;6.07;4.75;;;;;;;;;;4983694;28;20062;-80
2024/03/01 04:57:25;;;;;;;5.43;4.28;;;;;;;;;;4974135;28;20117;-79
2024/03/01 04:59:53;;;;;;;5.57;4.78;;;;;;;;;;4991159;28;20442;-79
2024/03/01 05:02:21;;;;;;;5.97;4.38;;;;;;;;;;4983883;28;20034;-80
2024/03/01 05:04:47;;;;;;;5.53;4.47;;;;;;;;;;4982177;28;20523;-80
2024/03/01 05:07:12;;;;;;;5.93;4.30;;;;;;;;;;4958365;28;20042;-81
2024/03/01 05:09:38;;;;;;;6.03;4.70;;;;;;;;;;4991011;28;20091;-80
2024/03/01 05:12:03;;;;;;;5.18;4.45;;;;;;;;;;4998487;28;20061;-84
2024/03/01 05:14:29;;;;;;;5.80;4.78;;;;;;;;;;5002779;28;20274;-80
2024/03/01 05:16:54;;;;;;;6.00;4.93;;;;;;;;;;5006210;28;20039;-80
2024/03/01 05:19:19;;;;;;;5.70;4.32;;;;;;;;;;4978539;28;20042;-81
2024/03/01 05:21:45;;;;;;;6.53;4.60;;;;;;;;;;4982937;28;20058;-80
2024/03/01 05:24:11;;;;;;;5.90;4.90;;;;;;;;;;5010657;28;20092;-80
2024/03/01 05:26:36;;;;;;;5.20;4.40;;;;;;;;;;5006127;28;20064;-82
2024/03/01 05:29:02;;;;;;;5.20;4.38;;;;;;;;;;5004215;28;20037;-80
2024/03/01 05:31:28;;;;;;;6.03;4.65;;;;;;;;;;4975003;28;20493;-79
2024/03/01 05:33:54;;;;;;;5.50;4.28;;;;;;;;;;4986787;28;20373;-80
2024/03/01 05:36:19;;;;;;;5.60;4.57;;;;;;;;;;4997100;28;20486;-81
2024/03/01 05:38:44;;;;;;;5.35;4.50;;;;;;;;;;4970702;28;20074;-79
2024/03/01 05:41:12;;;;;;;5.78;4.50;;;;;;;;;;4992414;28;20077;-80
2024/03/01 05:43:37;;;;;;;5.63;4.60;;;;;;;;;;4991855;28;20275;-81
2024/03/01 05:46:10;;;;;;;5.78;4.18;;;;;;;;;;4993522;28;20034;-76
2024/03/01 05:48:36;;;;;;;5.68;4.60;;;;;;;;;;4980410;28;20641;-81
2024/03/01 05:51:02;;;;;;;5.75;4.43;;;;;;;;;;4974109;28;20050;-78
2024/03/01 05:53:28;;;;;;;5.68;4.55;;;;;;;;;;4956115;28;20035;-80
2024/03/01 05:55:53;;;;;;;5.75;4.50;;;;;;;;;;4972622;28;20093;-79
2024/03/01 05:58:19;;;;;;;4.70;4.05;;;;;;;;;;4948901;28;20505;-80
2024/03/01 06:00:46;;;;;;;6.38;3.83;;;;;;;;;;4957133;28;20126;-77
2024/03/01 06:03:11;;;;;;;5.45;4.30;;;;;;;;;;4965430;28;20038;-81
2024/03/01 06:05:36;;;;;;;6.00;4.10;;;;;;;;;;4960659;28;20027;-77
2024/03/01 06:08:02;;;;;;;5.43;4.15;;;;;;;;;;4965692;28;20043;-78
2024/03/01 06:10:27;;;;;;;6.18;4.50;;;;;;;;;;4949223;28;20138;-80
2024/03/01 06:12:52;;;;;;;5.25;4.00;;;;;;;;;;4967590;28;20086;-76
2024/03/01 06:15:18;;;;;;;4.78;3.67;;;;;;;;;;4967219;28;20042;-76
2024/03/01 06:17:43;;;;;;;5.65;4.05;;;;;;;;;;4948495;28;20552;-76
2024/03/01 06:20:10;;;;;;;6.25;4.30;;;;;;;;;;4963913;28;20078;-78
2024/03/01 06:22:35;;;;;;;4.63;3.60;;;;;;;;;;4948267;28;20111;-76
2024/03/01 06:25:02;;;;;;;4.75;3.97;;;;;;;;;;4961877;28;20466;-78
2024/03/01 06:27:28;;;;;;;5.40;4.07;;;;;;;;;;4965909;28;20034;-76
2024/03/01 06:29:53;;;;;;;5.28;4.22;;;;;;;;;;4966723;28;20448;-76
2024/03/01 06:32:18;;;;;;;5.70;3.78;;;;;;;;;;4961028;28;20118;-76
2024/03/01 06:34:44;;;;;;;5.72;4.30;;;;;;;;;;4962601;28;20043;-77
2024/03/01 06:37:09;;;;;;;4.55;3.65;;;;;;;;;;4958081;28;20061;-78
2024/03/01 06:39:34;;;;;;;5.97;4.32;;;;;;;;;;4964001;28;20035;-80
2024/03/01 06:42:00;;;;;;;4.35;3.55;;;;;;;;;;4971225;28;20038;-81
2024/03/01 06:44:27;;;;;;;4.38;3.97;;;;;;;;;;4969311;28;20122;-78
2024/03/01 06:46:52;;;;;;;7.57;3.97;;;;;;;;;;4952377;28;20058;-79
2024/03/01 06:49:18;;;;;;;4.78;3.63;;;;;;;;;;4963979;28;20525;-79
2024/03/01 06:51:44;;;;;;;5.82;4.15;;;;;;;;;;4966985;28;20195;-78
2024/03/01 06:54:09;;;;;;;4.78;4.10;;;;;;;;;;4974498;28;20034;-79
2024/03/01 06:56:38;;;;;;;5.28;3.92;;;;;;;;;;4971474;28;20050;-77
2024/03/01 06:59:04;;;;;;;4.45;3.90;;;;;;;;;;4944296;28;20039;-76
2024/03/01 07:01:29;;;;;;;4.78;3.90;;;;;;;;;;4960761;28;20038;-77
2024/03/01 07:03:55;;;;;;;4.75;3.60;;;;;;;;;;4964068;28;20046;-79
2024/03/01 07:06:20;;;;;;;4.45;3.60;;;;;;;;;;4946075;28;20066;-77
2024/03/01 07:08:45;;;;;;;5.70;4.20;;;;;;;;;;4969724;28;20042;-77
2024/03/01 07:11:11;;;;;;;5.88;3.65;;;;;;;;;;4955426;28;20585;-76
2024/03/01 07:13:36;;;;;;;4.75;3.85;;;;;;;;;;4964336;28;20069;-80
2024/03/01 07:16:01;;;;;;;4.97;4.13;;;;;;;;;;4963634;28;20054;-80
2024/03/01 07:18:27;;;;;;;5.25;4.05;;;;;;;;;;4967110;28;20058;-79
2024/03/01 07:20:53;;;;;;;4.65;4.00;;;;;;;;;;4965582;28;20050;-80
2024/03/01 07:23:20;;;;;;;5.55;4.03;;;;;;;;;;4961276;28;20101;-77
2024/03/01 07:25:45;;;;;;;5.22;3.90;;;;;;;;;;4964978;28;20049;-77
2024/03/01 07:28:11;;;;;;;6.00;4.10;;;;;;;;;;4964997;28;20418;-76
2024/03/01 07:30:44;;;;;;;4.82;3.97;;;;;;;;;;4953254;28;20088;-76
2024/03/01 07:33:09;;;;;;;7.90;3.90;;;;;;;;;;4968591;28;20077;-76
2024/03/01 07:35:41;;;;;;;5.63;4.10;;;;;;;;;;4982668;28;20139;-79
2024/03/01 07:38:06;;;;;;;5.25;3.63;;;;;;;;;;4965555;28;20015;-80
2024/03/01 07:40:31;;;;;;;5.25;3.72;;;;;;;;;;4968292;28;20041;-78
2024/03/01 07:42:57;;;;;;;5.63;3.92;;;;;;;;;;4968882;28;20279;-77
2024/03/01 07:45:22;;;;;;;5.63;3.53;;;;;;;;;;4968804;28;20102;-79
2024/03/01 07:47:47;;;;;;;5.72;3.97;;;;;;;;;;4966137;28;20501;-80
2024/03/01 07:50:14;;;;;;;6.95;4.18;;;;;;;;;;4976878;28;20033;-80
2024/03/01 07:52:39;;;;;;;5.05;3.80;;;;;;;;;;4982550;28;20033;-80
2024/03/01 07:55:05;;;;;;;6.20;4.25;;;;;;;;;;4976816;28;20039;-82
2024/03/01 07:57:30;;;;;;;6.30;3.72;;;;;;;;;;4999840;28;20043;-80
2024/03/01 07:59:55;;;;;;;4.68;3.53;;;;;;;;;;4985703;28;20043;-79
2024/03/01 08:02:21;;;;;;;6.93;4.05;;;;;;;;;;4982656;28;20054;-79
2024/03/01 08:04:46;;;;;;;6.00;4.07;;;;;;;;;;4985830;28;20769;-80
2024/03/01 08:07:14;;;;;;;7.53;4.10;;;;;;;;;;4967194;28;20038;-80
2024/03/01 08:09:40;;;;;;;5.10;3.78;;;;;;;;;;4991609;28;20093;-81
2024/03/01 08:12:10;;;;;;;6.78;4.18;;;;;;;;;;4987777;28;20038;-81
2024/03/01 08:14:36;;;;;;;5.00;3.80;;;;;;;;;;4987649;28;20071;-80
2024/03/01 08:17:01;;;;;;;5.97;4.50;;;;;;;;;;4972741;28;20097;-81
2024/03/01 08:19:32;;;;;;;5.97;4.20;;;;;;;;;;4987327;28;20041;-80
2024/03/01 08:22:19;;;;;;;5.65;4.25;;;;;;;;;;4974912;28;20043;-80
2024/03/01 08:24:48;;;;;;;5.93;4.30;;;;;;;;;;4969812;28;20690;-81
2024/03/01 08:27:16;;;;;;;6.07;4.00;;;;;;;;;;4966814;28;20039;-81
2024/03/01 08:29:42;;;;;;;7.10;4.20;;;;;;;;;;4967025;28;20132;-80
2024/03/01 08:32:28;;;;;;;6.57;4.22;;;;;;;;;;4969023;28;20039;-80
2024/03/01 08:34:57;;;;;;;5.68;3.92;;;;;;;;;;4965736;28;20853;-77
2024/03/01 08:37:23;;;;;;;7.82;4.95;;;;;;;;;;4949259;28;20035;-80
2024/03/01 08:39:49;;;;;;;6.25;4.22;;;;;;;;;;4966299;28;20074;-80
2024/03/01 08:42:15;;;;;;;6.22;4.05;;;;;;;;;;4968288;28;20069;-79
2024/03/01 08:44:46;;;;;;;7.68;4.78;;;;;;;;;;4961819;28;20043;-79
2024/03/01 08:47:23;;;;;;;9.00;4.88;;;;;;;;;;4966795;28;20043;-80
2024/03/01 08:49:53;;;;;;;6.45;4.65;;;;;;;;;;4949611;28;20047;-80
2024/03/01 08:52:31;;;;;;;6.50;4.57;;;;;;;;;;4966990;28;20301;-80
2024/03/01 08:55:00;;;;;;;6.53;4.78;;;;;;;;;;4964670;28;20313;-80
2024/03/01 08:57:25;;;;;;;7.90;4.80;;;;;;;;;;4965306;28;20775;-80
2024/03/01 08:59:51;;;;;;;6.60;4.32;;;;;;;;;;4964809;28;20047;-80
2024/03/01 09:02:40;;;;;;;7.65;5.40;;;;;;;;;;4969253;28;20062;-80
2024/03/01 09:05:06;;;;;;;6.95;4.90;;;;;;;;;;4978943;28;20069;-79
2024/03/01 09:07:31;;;;;;;7.72;5.18;;;;;;;;;;4965802;28;20054;-79
2024/03/01 09:09:57;;;;;;;7.90;5.00;;;;;;;;;;4961123;28;20065;-79
2024/03/01 09:12:23;;;;;;;7.10;4.85;;;;;;;;;;4964542;28;20026;-78
2024/03/01 09:14:49;;;;;;;7.10;4.88;;;;;;;;;;4980763;28;20134;-77
2024/03/01 09:17:14;;;;;;;9.25;5.07;;;;;;;;;;4968804;28;20114;-79
2024/03/01 09:19:40;;;;;;;7.95;5.22;;;;;;;;;;4966853;28;20049;-79
2024/03/01 09:22:06;;;;;;;8.27;5.38;;;;;;;;;;4996636;28;20173;-79
2024/03/01 09:24:33;;;;;;;7.45;5.10;;;;;;;;;;4998342;28;20042;-80
2024/03/01 09:27:01;;;;;;;7.63;4.82;;;;;;;;;;4986661;28;20121;-80
2024/03/01 09:29:36;;;;;;;8.30;5.63;;;;;;;;;;4965345;28;20415;-80
2024/03/01 09:32:02;;;;;;;8.63;5.38;;;;;;;;;;4963246;28;20073;-79
2024/03/01 09:34:34;;;;;;;8.80;5.70;;;;;;;;;;4972317;28;20101;-79
2024/03/01 09:37:00;;;;;;;10.30;5.38;;;;;;;;;;5002006;28;20265;-79
2024/03/01 09:39:25;;;;;;;8.57;5.03;;;;;;;;;;4973299;28;20062;-79
2024/03/01 09:41:56;;;;;;;7.75;5.50;;;;;;;;;;4983073;28;20138;-79
2024/03/01 09:44:26;;;;;;;9.05;5.65;;;;;;;;;;4979371;28;20576;-79
2024/03/01 09:47:04;;;;;;;7.88;5.32;;;;;;;;;;4971419;28;20089;-78
2024/03/01 09:49:32;;;;;;;7.55;5.05;;;;;;;;;;4974281;28;20069;-79
2024/03/01 09:52:07;;;;;;;9.23;5.68;;;;;;;;;;4975108;28;20038;-82
2024/03/01 09:54:39;;;;;;;6.90;5.03;;;;;;;;;;4983647;28;20070;-79
2024/03/01 09:57:09;;;;;;;7.72;5.22;;;;;;;;;;4972534;28;20145;-81
2024/03/01 09:59:37;;;;;;;7.78;5.18;;;;;;;;;;4973063;28;20049;-80
2024/03/01 10:02:04;;;;;;;8.55;5.20;;;;;;;;;;4978441;28;20054;-78
2024/03/01 10:04:36;;;;;;;7.18;5.28;;;;;;;;;;4945146;28;20049;-77
2024/03/01 10:07:17;;;;;;;7.22;5.30;;;;;;;;;;4978251;28;20039;-78
2024/03/01 10:10:09;;;;;;;9.77;5.55;;;;;;;;;;4958445;28;20106;-81
2024/03/01 10:12:48;;;;;;;8.38;5.68;;;;;;;;;;4969800;28;20370;-79
2024/03/01 10:15:31;;;;;;;8.43;5.43;;;;;;;;;;4962756;28;20038;-79
2024/03/01 10:18:07;;;;;;;7.95;5.13;;;;;;;;;;4959821;28;20114;-85
2024/03/01 10:20:48;;;;;;;7.05;5.28;;;;;;;;;;4966481;28;20038;-80
2024/03/01 10:23:49;;;;;;;7.68;5.10;;;;;;;;;;4966970;28;20039;-81
2024/03/01 10:26:18;;;;;;;7.25;5.00;;;;;;;;;;4984848;28;20039;-79
2024/03/01 10:28:53;;;;;;;7.20;5.10;;;;;;;;;;4965397;28;20081;-79
2024/03/01 10:31:24;;;;;;;7.00;5.22;;;;;;;;;;4967667;28;20049;-79
2024/03/01 10:33:57;;;;;;;6.53;5.00;;;;;;;;;;4964653;28;20116;-81
2024/03/01 10:36:35;;;;;;;7.55;4.72;;;;;;;;;;4960834;28;20094;-81
2024/03/01 10:39:07;;;;;;;6.93;4.70;;;;;;;;;;4977932;28;20039;-81
2024/03/01 10:41:40;;;;;;;6.72;5.07;;;;;;;;;;4977179;28;20566;-82
2024/03/01 10:44:24;;;;;;;7.18;5.30;;;;;;;;;;4967802;28;20015;-83
2024/03/01 10:47:00;;;;;;;7.50;5.35;;;;;;;;;;4973206;28;20093;-81
2024/03/01 10:49:25;;;;;;;7.38;5.00;;;;;;;;;;4961207;28;20042;-84
2024/03/01 10:51:52;;;;;;;7.75;5.03;;;;;;;;;;4965091;28;20031;-80
2024/03/01 10:54:18;;;;;;;7.60;5.18;;;;;;;;;;4963865;28;20062;-85
2024/03/01 10:56:44;;;;;;;6.68;4.85;;;;;;;;;;4970855;28;20042;-83
2024/03/01 10:59:25;;;;;;;7.90;5.13;;;;;;;;;;4966265;28;20042;-80
2024/03/01 11:01:59;;;;;;;7.15;5.03;;;;;;;;;;4967617;28;20502;-80
2024/03/01 11:07:49;;;;;;;7.75;5.32;;;;;;;;;;4972065;28;20840;-81
2024/03/01 11:10:24;;;;;;;8.00;5.07;;;;;;;;;;4970045;28;20145;-81
2024/03/01 11:13:00;;;;;;;7.90;5.43;;;;;;;;;;4978019;28;20042;-80
2024/03/01 11:15:26;;;;;;;6.95;5.10;;;;;;;;;;4971669;28;20038;-81
2024/03/01 11:17:52;;;;;;;7.47;5.30;;;;;;;;;;4983678;28;20023;-81
2024/03/01 11:20:22;;;;;;;8.50;5.22;;;;;;;;;;4982111;28;20038;-81
2024/03/01 11:22:49;;;;;;;7.35;4.97;;;;;;;;;;4966461;28;20081;-80
2024/03/01 11:25:15;;;;;;;6.72;4.95;;;;;;;;;;4981074;28;20050;-80
2024/03/01 11:27:52;;;;;;;7.38;4.93;;;;;;;;;;4956659;28;20038;-78
2024/03/01 11:30:25;;;;;;;5.90;4.47;;;;;;;;;;4968985;28;20443;-78
2024/03/01 11:32:53;;;;;;;6.40;4.70;;;;;;;;;;4938889;28;20038;-77
2024/03/01 11:35:19;;;;;;;6.88;5.07;;;;;;;;;;4956893;28;20070;-77
2024/03/01 11:38:00;;;;;;;6.85;5.03;;;;;;;;;;4976498;28;20058;-78
2024/03/01 11:40:43;;;;;;;7.05;4.90;;;;;;;;;;4958318;28;20063;-77
2024/03/01 11:43:20;;;;;;;6.80;4.95;;;;;;;;;;4962283;28;20050;-76
2024/03/01 11:46:04;;;;;;;7.18;4.72;;;;;;;;;;4960399;28;20529;-77
2024/03/01 11:48:46;;;;;;;6.35;4.47;;;;;;;;;;4955347;28;20043;-77
2024/03/01 11:51:21;;;;;;;6.82;5.10;;;;;;;;;;4957628;28;20600;-78
2024/03/01 11:54:05;;;;;;;7.82;5.25;;;;;;;;;;4963800;28;20039;-78
2024/03/01 11:56:31;;;;;;;7.80;5.03;;;;;;;;;;4976001;28;20416;-77
2024/03/01 11:59:03;;;;;;;6.38;4.45;;;;;;;;;;4960466;28;20027;-77
2024/03/01 12:01:34;;;;;;;6.00;4.43;;;;;;;;;;4961799;28;20075;-77
2024/03/01 12:04:03;;;;;;;6.15;4.60;;;;;;;;;;4977614;28;20077;-83
2024/03/01 12:06:34;;;;;;;6.18;4.78;;;;;;;;;;4960935;28;20035;-79
2024/03/01 12:09:12;;;;;;;6.97;4.70;;;;;;;;;;4964370;28;20031;-82
2024/03/01 12:11:47;;;;;;;6.13;4.55;;;;;;;;;;4962926;28;20057;-84
2024/03/01 12:14:14;;;;;;;6.65;5.03;;;;;;;;;;4962982;28;20604;-78
2024/03/01 12:16:39;;;;;;;6.90;4.90;;;;;;;;;;4960479;28;20043;-81
2024/03/01 12:19:07;;;;;;;6.38;4.80;;;;;;;;;;4964188;28;20577;-81
2024/03/01 12:21:36;;;;;;;7.35;5.07;;;;;;;;;;4962707;28;20062;-81
2024/03/01 12:24:01;;;;;;;7.35;5.35;;;;;;;;;;4965684;28;20031;-81
2024/03/01 12:26:46;;;;;;;7.75;5.18;;;;;;;;;;4964214;28;20031;-81
2024/03/01 12:29:32;;;;;;;7.25;5.03;;;;;;;;;;4944012;28;20034;-81
2024/03/01 12:32:01;;;;;;;6.55;4.78;;;;;;;;;;4958517;28;20549;-79
2024/03/01 12:34:38;;;;;;;6.53;5.10;;;;;;;;;;4961009;28;20042;-78
2024/03/01 12:37:22;;;;;;;5.65;4.50;;;;;;;;;;4960768;28;20058;-76
2024/03/01 12:39:58;;;;;;;6.28;4.95;;;;;;;;;;4960528;28;20053;-80
2024/03/01 12:42:32;;;;;;;6.22;4.65;;;;;;;;;;4949251;28;20061;-80
2024/03/01 12:45:00;;;;;;;6.65;5.00;;;;;;;;;;4955615;28;20030;-78
2024/03/01 12:47:30;;;;;;;5.78;4.68;;;;;;;;;;4967927;28;20539;-81
2024/03/01 12:50:14;;;;;;;7.32;5.40;;;;;;;;;;4971064;28;20042;-82
2024/03/01 12:52:45;;;;;;;8.07;5.40;;;;;;;;;;4976377;28;20043;-81
2024/03/01 12:55:29;;;;;;;7.25;5.30;;;;;;;;;;4975373;28;20043;-81
2024/03/01 12:57:57;;;;;;;8.30;5.00;;;;;;;;;;4990627;28;20039;-80
2024/03/01 13:00:25;;;;;;;6.82;5.07;;;;;;;;;;4970543;28;20034;-80
2024/03/01 13:03:11;;;;;;;6.97;4.65;;;;;;;;;;4970844;28;20066;-80
2024/03/01 13:05:37;;;;;;;6.85;4.65;;;;;;;;;;4969379;28;20117;-81
2024/03/01 13:08:04;;;;;;;6.22;5.00;;;;;;;;;;4967671;28;20154;-81
2024/03/01 13:10:30;;;;;;;6.88;5.25;;;;;;;;;;4950022;28;20125;-81
2024/03/01 13:12:57;;;;;;;6.75;5.03;;;;;;;;;;4968129;28;20501;-80
2024/03/01 13:15:22;;;;;;;6.68;4.93;;;;;;;;;;4970679;28;20080;-81
2024/03/01 13:18:00;;;;;;;7.78;5.35;;;;;;;;;;4967691;28;20038;-81
2024/03/01 13:20:25;;;;;;;6.68;4.78;;;;;;;;;;4984589;28;20045;-80
2024/03/01 13:22:52;;;;;;;7.40;4.97;;;;;;;;;;4969430;28;20030;-82
2024/03/01 13:25:21;;;;;;;7.53;5.03;;;;;;;;;;4966899;28;20059;-81
2024/03/01 13:27:56;;;;;;;8.45;5.35;;;;;;;;;;4965130;28;20391;-82
2024/03/01 13:30:22;;;;;;;6.60;4.90;;;;;;;;;;4969140;28;20126;-81
2024/03/01 13:32:50;;;;;;;7.22;5.22;;;;;;;;;;4964749;28;20031;-80
2024/03/01 13:35:15;;;;;;;7.43;4.72;;;;;;;;;;4966473;28;20045;-80
2024/03/01 13:38:01;;;;;;;8.32;5.10;;;;;;;;;;4966581;28;20026;-81
2024/03/01 13:40:49;;;;;;;7.20;4.97;;;;;;;;;;4966168;28;20177;-81
2024/03/01 13:43:28;;;;;;;6.88;5.22;;;;;;;;;;4967000;28;20680;-80
2024/03/01 13:46:03;;;;;;;6.32;4.80;;;;;;;;;;4962371;28;20046;-80
2024/03/01 13:48:30;;;;;;;5.90;4.90;;;;;;;;;;4965647;28;20631;-80
2024/03/01 13:50:55;;;;;;;7.53;5.18;;;;;;;;;;4950524;28;20486;-80
2024/03/01 13:53:21;;;;;;;7.32;5.22;;;;;;;;;;4961296;28;20035;-81
2024/03/01 13:55:47;;;;;;;8.18;5.10;;;;;;;;;;4962994;28;20079;-81
2024/03/01 13:58:15;;;;;;;6.53;4.55;;;;;;;;;;4965681;28;20050;-80
2024/03/01 14:00:51;;;;;;;8.10;5.22;;;;;;;;;;4964705;28;20043;-81
2024/03/01 14:03:16;;;;;;;6.13;4.97;;;;;;;;;;4954258;28;20117;-81
2024/03/01 14:05:42;;;;;;;6.80;5.03;;;;;;;;;;4976935;28;20082;-80
2024/03/01 14:08:08;;;;;;;6.15;4.80;;;;;;;;;;4988839;28;20647;-80
2024/03/01 14:10:33;;;;;;;6.28;4.78;;;;;;;;;;4969024;28;20097;-80
2024/03/01 14:12:58;;;;;;;6.97;5.13;;;;;;;;;;4971194;28;20046;-81
2024/03/01 14:15:24;;;;;;;6.60;4.80;;;;;;;;;;4984784;28;20042;-81
2024/03/01 14:17:52;;;;;;;7.22;4.80;;;;;;;;;;4977048;28;20878;-81
2024/03/01 14:20:18;;;;;;;6.50;4.75;;;;;;;;;;4964106;28;20039;-80
2024/03/01 14:22:45;;;;;;;6.65;4.63;;;;;;;;;;4981809;28;20107;-82
2024/03/01 14:25:11;;;;;;;6.47;4.93;;;;;;;;;;4955694;28;20057;-81
2024/03/01 14:27:40;;;;;;;6.15;4.60;;;;;;;;;;4978763;28;20050;-80
2024/03/01 14:30:07;;;;;;;5.95;5.03;;;;;;;;;;4979908;28;20516;-80
2024/03/01 14:32:33;;;;;;;7.07;4.60;;;;;;;;;;4965164;28;20031;-80
2024/03/01 14:34:58;;;;;;;6.45;4.70;;;;;;;;;;4980809;28;20516;-81
2024/03/01 14:37:27;;;;;;;5.90;4.60;;;;;;;;;;4982026;28;20038;-81
2024/03/01 14:39:53;;;;;;;6.18;4.70;;;;;;;;;;4977228;28;20050;-79
2024/03/01 14:42:18;;;;;;;7.05;4.93;;;;;;;;;;4979934;28;20473;-79
2024/03/01 14:44:44;;;;;;;6.70;5.18;;;;;;;;;;4955613;28;20097;-80
2024/03/01 14:47:11;;;;;;;6.32;4.50;;;;;;;;;;4972537;28;20039;-80
2024/03/01 14:49:40;;;;;;;6.60;4.68;;;;;;;;;;4972088;28;20070;-80
2024/03/01 14:52:06;;;;;;;;;;;;;;;;;;4965239;28;20039;-80